sensor_id;sensor_type;location;lat;lon;timestamp;P1;durP1;ratioP1;P2;durP2;ratioP2
66175;SDS011;52977;44.816;20.538;2023-06-14T00:02:08;6.70;;;2.00;;
66175;SDS011;52977;44.816;20.538;2023-06-14T00:04:34;6.53;;;2.22;;
66175;SDS011;52977;44.816;20.538;2023-06-14T00:07:00;4.00;;;2.10;;
66175;SDS011;52977;44.816;20.538;2023-06-14T00:09:26;4.32;;;2.15;;
66175;SDS011;52977;44.816;20.538;2023-06-14T00:11:52;5.75;;;2.50;;
66175;SDS011;52977;44.816;20.538;2023-06-14T00:14:18;4.47;;;2.38;;
66175;SDS011;52977;44.816;20.538;2023-06-14T00:16:43;4.65;;;2.47;;
66175;SDS011;52977;44.816;20.538;2023-06-14T00:19:09;4.13;;;2.30;;
66175;SDS011;52977;44.816;20.538;2023-06-14T00:21:35;4.93;;;2.63;;
66175;SDS011;52977;44.816;20.538;2023-06-14T00:24:03;7.45;;;2.30;;
66175;SDS011;52977;44.816;20.538;2023-06-14T00:26:29;6.72;;;2.88;;
66175;SDS011;52977;44.816;20.538;2023-06-14T00:28:55;8.32;;;2.40;;
66175;SDS011;52977;44.816;20.538;2023-06-14T00:31:22;4.30;;;2.30;;
66175;SDS011;52977;44.816;20.538;2023-06-14T00:33:48;5.05;;;2.50;;
66175;SDS011;52977;44.816;20.538;2023-06-14T00:36:13;6.63;;;2.88;;
66175;SDS011;52977;44.816;20.538;2023-06-14T00:38:39;5.68;;;2.75;;
66175;SDS011;52977;44.816;20.538;2023-06-14T00:41:05;7.68;;;3.33;;
66175;SDS011;52977;44.816;20.538;2023-06-14T00:43:30;6.78;;;3.35;;
66175;SDS011;52977;44.816;20.538;2023-06-14T00:45:56;7.63;;;3.00;;
66175;SDS011;52977;44.816;20.538;2023-06-14T00:48:22;5.97;;;2.47;;
66175;SDS011;52977;44.816;20.538;2023-06-14T00:50:49;7.70;;;3.30;;
66175;SDS011;52977;44.816;20.538;2023-06-14T00:53:16;6.50;;;3.22;;
66175;SDS011;52977;44.816;20.538;2023-06-14T00:55:50;8.02;;;3.10;;
66175;SDS011;52977;44.816;20.538;2023-06-14T00:58:16;6.53;;;2.67;;
66175;SDS011;52977;44.816;20.538;2023-06-14T01:00:42;7.68;;;3.28;;
66175;SDS011;52977;44.816;20.538;2023-06-14T01:03:07;5.18;;;2.78;;
66175;SDS011;52977;44.816;20.538;2023-06-14T01:05:37;6.53;;;3.23;;
66175;SDS011;52977;44.816;20.538;2023-06-14T01:10:52;7.45;;;2.88;;
66175;SDS011;52977;44.816;20.538;2023-06-14T01:15:57;6.85;;;2.72;;
66175;SDS011;52977;44.816;20.538;2023-06-14T01:18:25;7.70;;;3.38;;
66175;SDS011;52977;44.816;20.538;2023-06-14T01:20:53;6.30;;;3.10;;
66175;SDS011;52977;44.816;20.538;2023-06-14T01:23:23;6.90;;;3.50;;
66175;SDS011;52977;44.816;20.538;2023-06-14T01:25:51;8.55;;;3.95;;
66175;SDS011;52977;44.816;20.538;2023-06-14T01:28:21;6.13;;;3.22;;
66175;SDS011;52977;44.816;20.538;2023-06-14T01:30:51;6.80;;;3.22;;
66175;SDS011;52977;44.816;20.538;2023-06-14T01:33:22;8.60;;;3.55;;
66175;SDS011;52977;44.816;20.538;2023-06-14T01:35:51;9.32;;;3.72;;
66175;SDS011;52977;44.816;20.538;2023-06-14T01:38:19;9.57;;;3.92;;
66175;SDS011;52977;44.816;20.538;2023-06-14T01:40:47;6.82;;;3.55;;
66175;SDS011;52977;44.816;20.538;2023-06-14T01:43:14;5.50;;;3.03;;
66175;SDS011;52977;44.816;20.538;2023-06-14T01:45:42;6.72;;;3.42;;
66175;SDS011;52977;44.816;20.538;2023-06-14T01:48:10;8.02;;;3.30;;
66175;SDS011;52977;44.816;20.538;2023-06-14T01:50:37;9.52;;;3.00;;
66175;SDS011;52977;44.816;20.538;2023-06-14T01:53:07;6.30;;;3.40;;
66175;SDS011;52977;44.816;20.538;2023-06-14T01:55:36;8.68;;;3.78;;
66175;SDS011;52977;44.816;20.538;2023-06-14T01:58:09;8.93;;;3.38;;
66175;SDS011;52977;44.816;20.538;2023-06-14T02:00:36;6.60;;;3.30;;
66175;SDS011;52977;44.816;20.538;2023-06-14T02:03:02;6.78;;;3.58;;
66175;SDS011;52977;44.816;20.538;2023-06-14T02:05:30;8.40;;;3.88;;
66175;SDS011;52977;44.816;20.538;2023-06-14T02:07:55;10.55;;;4.18;;
66175;SDS011;52977;44.816;20.538;2023-06-14T02:10:21;8.27;;;4.13;;
66175;SDS011;52977;44.816;20.538;2023-06-14T02:12:47;8.65;;;4.43;;
66175;SDS011;52977;44.816;20.538;2023-06-14T02:15:12;10.60;;;3.92;;
66175;SDS011;52977;44.816;20.538;2023-06-14T02:17:45;10.10;;;4.40;;
66175;SDS011;52977;44.816;20.538;2023-06-14T02:20:12;9.18;;;4.57;;
66175;SDS011;52977;44.816;20.538;2023-06-14T02:22:38;11.70;;;4.55;;
66175;SDS011;52977;44.816;20.538;2023-06-14T02:25:06;12.07;;;4.68;;
66175;SDS011;52977;44.816;20.538;2023-06-14T02:27:32;9.10;;;5.00;;
66175;SDS011;52977;44.816;20.538;2023-06-14T02:29:58;9.73;;;4.72;;
66175;SDS011;52977;44.816;20.538;2023-06-14T02:32:25;11.30;;;5.45;;
66175;SDS011;52977;44.816;20.538;2023-06-14T02:34:52;11.05;;;4.97;;
66175;SDS011;52977;44.816;20.538;2023-06-14T02:37:18;15.18;;;5.57;;
66175;SDS011;52977;44.816;20.538;2023-06-14T02:39:45;11.50;;;5.38;;
66175;SDS011;52977;44.816;20.538;2023-06-14T02:42:11;12.57;;;6.10;;
66175;SDS011;52977;44.816;20.538;2023-06-14T02:44:37;9.77;;;5.60;;
66175;SDS011;52977;44.816;20.538;2023-06-14T02:47:03;14.43;;;6.40;;
66175;SDS011;52977;44.816;20.538;2023-06-14T02:49:30;11.63;;;5.78;;
66175;SDS011;52977;44.816;20.538;2023-06-14T02:51:55;13.52;;;6.35;;
66175;SDS011;52977;44.816;20.538;2023-06-14T02:54:21;13.00;;;6.28;;
66175;SDS011;52977;44.816;20.538;2023-06-14T02:56:47;11.57;;;5.40;;
66175;SDS011;52977;44.816;20.538;2023-06-14T02:59:13;12.55;;;5.90;;
66175;SDS011;52977;44.816;20.538;2023-06-14T03:01:40;11.68;;;6.03;;
66175;SDS011;52977;44.816;20.538;2023-06-14T03:04:10;12.23;;;5.65;;
66175;SDS011;52977;44.816;20.538;2023-06-14T03:06:38;11.15;;;4.88;;
66175;SDS011;52977;44.816;20.538;2023-06-14T03:09:05;13.18;;;5.30;;
66175;SDS011;52977;44.816;20.538;2023-06-14T03:11:32;10.30;;;4.95;;
66175;SDS011;52977;44.816;20.538;2023-06-14T03:13:58;9.15;;;4.60;;
66175;SDS011;52977;44.816;20.538;2023-06-14T03:16:25;10.50;;;4.88;;
66175;SDS011;52977;44.816;20.538;2023-06-14T03:18:56;10.18;;;4.22;;
66175;SDS011;52977;44.816;20.538;2023-06-14T03:21:24;9.15;;;4.82;;
66175;SDS011;52977;44.816;20.538;2023-06-14T03:23:52;10.30;;;4.57;;
66175;SDS011;52977;44.816;20.538;2023-06-14T03:26:18;8.35;;;4.15;;
66175;SDS011;52977;44.816;20.538;2023-06-14T03:28:46;9.65;;;4.82;;
66175;SDS011;52977;44.816;20.538;2023-06-14T03:31:13;10.70;;;5.07;;
66175;SDS011;52977;44.816;20.538;2023-06-14T03:33:39;10.93;;;5.10;;
66175;SDS011;52977;44.816;20.538;2023-06-14T03:36:05;8.27;;;3.97;;
66175;SDS011;52977;44.816;20.538;2023-06-14T03:38:34;9.23;;;4.07;;
66175;SDS011;52977;44.816;20.538;2023-06-14T03:41:02;8.05;;;3.95;;
66175;SDS011;52977;44.816;20.538;2023-06-14T03:43:27;9.70;;;4.30;;
66175;SDS011;52977;44.816;20.538;2023-06-14T03:45:55;10.32;;;4.25;;
66175;SDS011;52977;44.816;20.538;2023-06-14T03:48:22;7.45;;;3.90;;
66175;SDS011;52977;44.816;20.538;2023-06-14T03:50:48;6.93;;;3.70;;
66175;SDS011;52977;44.816;20.538;2023-06-14T03:53:13;7.93;;;3.55;;
66175;SDS011;52977;44.816;20.538;2023-06-14T03:55:43;7.77;;;3.40;;
66175;SDS011;52977;44.816;20.538;2023-06-14T03:58:10;10.07;;;3.10;;
66175;SDS011;52977;44.816;20.538;2023-06-14T04:00:37;6.93;;;2.95;;
66175;SDS011;52977;44.816;20.538;2023-06-14T04:03:03;5.22;;;3.05;;
66175;SDS011;52977;44.816;20.538;2023-06-14T04:05:31;4.80;;;2.50;;
66175;SDS011;52977;44.816;20.538;2023-06-14T04:07:57;5.00;;;2.80;;
66175;SDS011;52977;44.816;20.538;2023-06-14T04:10:24;6.00;;;2.80;;
66175;SDS011;52977;44.816;20.538;2023-06-14T04:12:49;4.90;;;2.33;;
66175;SDS011;52977;44.816;20.538;2023-06-14T04:15:16;7.70;;;2.70;;
66175;SDS011;52977;44.816;20.538;2023-06-14T04:17:43;4.78;;;2.20;;
66175;SDS011;52977;44.816;20.538;2023-06-14T04:20:09;6.07;;;2.70;;
66175;SDS011;52977;44.816;20.538;2023-06-14T04:22:36;5.10;;;2.55;;
66175;SDS011;52977;44.816;20.538;2023-06-14T04:25:03;6.75;;;2.83;;
66175;SDS011;52977;44.816;20.538;2023-06-14T04:27:32;5.68;;;3.13;;
66175;SDS011;52977;44.816;20.538;2023-06-14T04:30:01;7.22;;;3.22;;
66175;SDS011;52977;44.816;20.538;2023-06-14T04:32:34;4.75;;;2.70;;
66175;SDS011;52977;44.816;20.538;2023-06-14T04:35:03;7.22;;;2.20;;
66175;SDS011;52977;44.816;20.538;2023-06-14T04:37:34;6.18;;;2.40;;
66175;SDS011;52977;44.816;20.538;2023-06-14T04:40:00;4.75;;;2.38;;
66175;SDS011;52977;44.816;20.538;2023-06-14T04:42:26;4.70;;;2.00;;
66175;SDS011;52977;44.816;20.538;2023-06-14T04:44:55;5.15;;;2.28;;
66175;SDS011;52977;44.816;20.538;2023-06-14T04:47:22;6.10;;;2.28;;
66175;SDS011;52977;44.816;20.538;2023-06-14T04:49:50;6.40;;;2.60;;
66175;SDS011;52977;44.816;20.538;2023-06-14T04:52:20;7.73;;;2.63;;
66175;SDS011;52977;44.816;20.538;2023-06-14T04:54:52;5.22;;;2.33;;
66175;SDS011;52977;44.816;20.538;2023-06-14T04:57:20;4.18;;;2.10;;
66175;SDS011;52977;44.816;20.538;2023-06-14T04:59:48;6.25;;;2.63;;
66175;SDS011;52977;44.816;20.538;2023-06-14T05:02:16;5.35;;;2.67;;
66175;SDS011;52977;44.816;20.538;2023-06-14T05:04:42;5.80;;;2.90;;
66175;SDS011;52977;44.816;20.538;2023-06-14T05:07:08;4.88;;;2.42;;
66175;SDS011;52977;44.816;20.538;2023-06-14T05:09:35;5.50;;;2.83;;
66175;SDS011;52977;44.816;20.538;2023-06-14T05:12:01;5.25;;;2.35;;
66175;SDS011;52977;44.816;20.538;2023-06-14T05:14:27;4.85;;;2.42;;
66175;SDS011;52977;44.816;20.538;2023-06-14T05:16:52;6.22;;;3.05;;
66175;SDS011;52977;44.816;20.538;2023-06-14T05:19:18;6.70;;;2.28;;
66175;SDS011;52977;44.816;20.538;2023-06-14T05:21:46;6.25;;;2.50;;
66175;SDS011;52977;44.816;20.538;2023-06-14T05:24:13;7.45;;;2.67;;
66175;SDS011;52977;44.816;20.538;2023-06-14T05:26:43;6.28;;;2.80;;
66175;SDS011;52977;44.816;20.538;2023-06-14T05:29:08;7.07;;;2.80;;
66175;SDS011;52977;44.816;20.538;2023-06-14T05:31:34;6.05;;;2.75;;
66175;SDS011;52977;44.816;20.538;2023-06-14T05:34:00;6.50;;;3.40;;
66175;SDS011;52977;44.816;20.538;2023-06-14T05:36:25;8.30;;;3.30;;
66175;SDS011;52977;44.816;20.538;2023-06-14T05:38:53;11.38;;;3.85;;
66175;SDS011;52977;44.816;20.538;2023-06-14T05:41:26;15.10;;;5.63;;
66175;SDS011;52977;44.816;20.538;2023-06-14T05:43:53;13.25;;;5.25;;
66175;SDS011;52977;44.816;20.538;2023-06-14T05:46:21;17.40;;;8.38;;
66175;SDS011;52977;44.816;20.538;2023-06-14T05:48:50;25.98;;;11.00;;
66175;SDS011;52977;44.816;20.538;2023-06-14T05:51:16;22.70;;;9.95;;
66175;SDS011;52977;44.816;20.538;2023-06-14T05:53:48;29.35;;;11.10;;
66175;SDS011;52977;44.816;20.538;2023-06-14T05:56:15;24.92;;;10.45;;
66175;SDS011;52977;44.816;20.538;2023-06-14T05:58:43;24.42;;;10.82;;
66175;SDS011;52977;44.816;20.538;2023-06-14T06:01:10;22.17;;;9.25;;
66175;SDS011;52977;44.816;20.538;2023-06-14T06:03:37;21.80;;;9.20;;
66175;SDS011;52977;44.816;20.538;2023-06-14T06:06:03;21.33;;;8.77;;
66175;SDS011;52977;44.816;20.538;2023-06-14T06:08:30;24.38;;;10.32;;
66175;SDS011;52977;44.816;20.538;2023-06-14T06:10:57;19.85;;;8.95;;
66175;SDS011;52977;44.816;20.538;2023-06-14T06:13:22;21.23;;;8.05;;
66175;SDS011;52977;44.816;20.538;2023-06-14T06:15:48;16.15;;;7.85;;
66175;SDS011;52977;44.816;20.538;2023-06-14T06:18:32;16.40;;;7.22;;
66175;SDS011;52977;44.816;20.538;2023-06-14T06:20:59;21.20;;;9.85;;
66175;SDS011;52977;44.816;20.538;2023-06-14T06:23:25;18.33;;;9.27;;
66175;SDS011;52977;44.816;20.538;2023-06-14T06:25:51;19.27;;;8.00;;
66175;SDS011;52977;44.816;20.538;2023-06-14T06:28:17;14.38;;;6.90;;
66175;SDS011;52977;44.816;20.538;2023-06-14T06:30:43;14.10;;;6.32;;
66175;SDS011;52977;44.816;20.538;2023-06-14T06:33:09;12.88;;;5.72;;
66175;SDS011;52977;44.816;20.538;2023-06-14T06:35:36;14.27;;;5.72;;
66175;SDS011;52977;44.816;20.538;2023-06-14T06:38:02;11.02;;;5.47;;
66175;SDS011;52977;44.816;20.538;2023-06-14T06:40:28;13.98;;;5.88;;
66175;SDS011;52977;44.816;20.538;2023-06-14T06:42:55;11.52;;;5.65;;
66175;SDS011;52977;44.816;20.538;2023-06-14T06:45:21;8.85;;;4.57;;
66175;SDS011;52977;44.816;20.538;2023-06-14T06:47:49;11.35;;;4.90;;
66175;SDS011;52977;44.816;20.538;2023-06-14T06:50:15;11.65;;;5.53;;
66175;SDS011;52977;44.816;20.538;2023-06-14T06:52:41;9.32;;;4.50;;
66175;SDS011;52977;44.816;20.538;2023-06-14T06:55:07;10.57;;;4.22;;
66175;SDS011;52977;44.816;20.538;2023-06-14T06:57:36;8.23;;;4.25;;
66175;SDS011;52977;44.816;20.538;2023-06-14T07:00:01;9.25;;;4.05;;
66175;SDS011;52977;44.816;20.538;2023-06-14T07:02:30;9.90;;;4.45;;
66175;SDS011;52977;44.816;20.538;2023-06-14T07:04:56;9.95;;;4.68;;
66175;SDS011;52977;44.816;20.538;2023-06-14T07:07:22;8.07;;;3.92;;
66175;SDS011;52977;44.816;20.538;2023-06-14T07:09:47;6.30;;;4.03;;
66175;SDS011;52977;44.816;20.538;2023-06-14T07:12:13;7.82;;;4.00;;
66175;SDS011;52977;44.816;20.538;2023-06-14T07:14:39;10.27;;;4.72;;
66175;SDS011;52977;44.816;20.538;2023-06-14T07:17:07;11.57;;;4.95;;
66175;SDS011;52977;44.816;20.538;2023-06-14T07:19:35;10.02;;;5.22;;
66175;SDS011;52977;44.816;20.538;2023-06-14T07:22:01;12.00;;;4.72;;
66175;SDS011;52977;44.816;20.538;2023-06-14T07:24:27;9.00;;;4.25;;
66175;SDS011;52977;44.816;20.538;2023-06-14T07:26:53;8.52;;;4.63;;
66175;SDS011;52977;44.816;20.538;2023-06-14T07:29:20;9.02;;;4.70;;
66175;SDS011;52977;44.816;20.538;2023-06-14T07:31:46;11.68;;;4.28;;
66175;SDS011;52977;44.816;20.538;2023-06-14T07:34:14;8.93;;;4.55;;
66175;SDS011;52977;44.816;20.538;2023-06-14T07:36:43;8.32;;;4.28;;
66175;SDS011;52977;44.816;20.538;2023-06-14T07:39:10;9.52;;;4.72;;
66175;SDS011;52977;44.816;20.538;2023-06-14T07:41:35;8.63;;;4.00;;
66175;SDS011;52977;44.816;20.538;2023-06-14T07:44:01;7.28;;;3.67;;
66175;SDS011;52977;44.816;20.538;2023-06-14T07:46:27;8.30;;;3.75;;
66175;SDS011;52977;44.816;20.538;2023-06-14T07:48:53;9.05;;;3.88;;
66175;SDS011;52977;44.816;20.538;2023-06-14T07:51:18;8.55;;;4.13;;
66175;SDS011;52977;44.816;20.538;2023-06-14T07:53:44;7.40;;;3.65;;
66175;SDS011;52977;44.816;20.538;2023-06-14T07:56:11;7.13;;;3.38;;
66175;SDS011;52977;44.816;20.538;2023-06-14T07:58:37;10.00;;;3.65;;
66175;SDS011;52977;44.816;20.538;2023-06-14T08:01:02;8.77;;;3.42;;
66175;SDS011;52977;44.816;20.538;2023-06-14T08:03:31;8.20;;;3.72;;
66175;SDS011;52977;44.816;20.538;2023-06-14T08:05:57;7.82;;;3.58;;
66175;SDS011;52977;44.816;20.538;2023-06-14T08:08:23;9.68;;;3.70;;
66175;SDS011;52977;44.816;20.538;2023-06-14T08:10:50;7.07;;;3.60;;
66175;SDS011;52977;44.816;20.538;2023-06-14T08:13:16;7.22;;;3.28;;
66175;SDS011;52977;44.816;20.538;2023-06-14T08:15:42;7.93;;;2.90;;
66175;SDS011;52977;44.816;20.538;2023-06-14T08:18:07;8.43;;;2.90;;
66175;SDS011;52977;44.816;20.538;2023-06-14T08:20:33;7.25;;;2.95;;
66175;SDS011;52977;44.816;20.538;2023-06-14T08:23:00;7.97;;;3.05;;
66175;SDS011;52977;44.816;20.538;2023-06-14T08:25:25;7.80;;;3.28;;
66175;SDS011;52977;44.816;20.538;2023-06-14T08:27:51;8.27;;;3.15;;
66175;SDS011;52977;44.816;20.538;2023-06-14T08:30:17;9.45;;;3.80;;
66175;SDS011;52977;44.816;20.538;2023-06-14T08:32:43;6.68;;;3.22;;
66175;SDS011;52977;44.816;20.538;2023-06-14T08:35:09;5.95;;;2.90;;
66175;SDS011;52977;44.816;20.538;2023-06-14T08:37:38;5.43;;;3.08;;
66175;SDS011;52977;44.816;20.538;2023-06-14T08:42:37;5.38;;;2.58;;
66175;SDS011;52977;44.816;20.538;2023-06-14T08:45:03;4.90;;;2.75;;
66175;SDS011;52977;44.816;20.538;2023-06-14T08:47:29;5.40;;;2.50;;
66175;SDS011;52977;44.816;20.538;2023-06-14T08:50:01;5.72;;;2.55;;
66175;SDS011;52977;44.816;20.538;2023-06-14T08:52:30;4.55;;;2.25;;
66175;SDS011;52977;44.816;20.538;2023-06-14T08:54:59;5.78;;;2.70;;
66175;SDS011;52977;44.816;20.538;2023-06-14T08:57:25;4.30;;;2.30;;
66175;SDS011;52977;44.816;20.538;2023-06-14T08:59:55;5.57;;;2.20;;
66175;SDS011;52977;44.816;20.538;2023-06-14T09:02:22;5.05;;;2.78;;
66175;SDS011;52977;44.816;20.538;2023-06-14T09:04:47;5.55;;;2.33;;
66175;SDS011;52977;44.816;20.538;2023-06-14T09:07:14;5.38;;;2.25;;
66175;SDS011;52977;44.816;20.538;2023-06-14T09:09:40;4.95;;;2.60;;
66175;SDS011;52977;44.816;20.538;2023-06-14T09:12:10;3.67;;;2.05;;
66175;SDS011;52977;44.816;20.538;2023-06-14T09:14:38;6.80;;;2.63;;
66175;SDS011;52977;44.816;20.538;2023-06-14T09:17:05;7.40;;;2.90;;
66175;SDS011;52977;44.816;20.538;2023-06-14T09:19:31;7.05;;;3.45;;
66175;SDS011;52977;44.816;20.538;2023-06-14T09:21:58;5.38;;;2.35;;
66175;SDS011;52977;44.816;20.538;2023-06-14T09:24:24;7.13;;;2.70;;
66175;SDS011;52977;44.816;20.538;2023-06-14T09:26:53;6.35;;;2.58;;
66175;SDS011;52977;44.816;20.538;2023-06-14T09:29:18;5.53;;;2.88;;
66175;SDS011;52977;44.816;20.538;2023-06-14T09:31:47;4.85;;;2.20;;
66175;SDS011;52977;44.816;20.538;2023-06-14T09:34:13;3.85;;;2.17;;
66175;SDS011;52977;44.816;20.538;2023-06-14T09:36:39;4.45;;;2.30;;
66175;SDS011;52977;44.816;20.538;2023-06-14T09:39:08;8.80;;;2.60;;
66175;SDS011;52977;44.816;20.538;2023-06-14T09:41:35;6.68;;;2.40;;
66175;SDS011;52977;44.816;20.538;2023-06-14T09:44:03;6.00;;;2.30;;
66175;SDS011;52977;44.816;20.538;2023-06-14T09:46:30;6.18;;;2.55;;
66175;SDS011;52977;44.816;20.538;2023-06-14T09:48:59;5.15;;;2.50;;
66175;SDS011;52977;44.816;20.538;2023-06-14T09:51:26;5.60;;;2.47;;
66175;SDS011;52977;44.816;20.538;2023-06-14T09:53:53;3.92;;;2.00;;
66175;SDS011;52977;44.816;20.538;2023-06-14T09:56:27;4.13;;;2.30;;
66175;SDS011;52977;44.816;20.538;2023-06-14T09:58:57;5.95;;;2.58;;
66175;SDS011;52977;44.816;20.538;2023-06-14T10:01:24;8.13;;;2.55;;
66175;SDS011;52977;44.816;20.538;2023-06-14T10:04:02;5.05;;;2.75;;
66175;SDS011;52977;44.816;20.538;2023-06-14T10:06:29;5.95;;;2.20;;
66175;SDS011;52977;44.816;20.538;2023-06-14T10:08:57;6.25;;;3.10;;
66175;SDS011;52977;44.816;20.538;2023-06-14T10:11:26;9.82;;;2.63;;
66175;SDS011;52977;44.816;20.538;2023-06-14T10:13:55;6.20;;;2.92;;
66175;SDS011;52977;44.816;20.538;2023-06-14T10:16:31;5.88;;;2.40;;
66175;SDS011;52977;44.816;20.538;2023-06-14T10:24:08;5.13;;;2.45;;
66175;SDS011;52977;44.816;20.538;2023-06-14T10:26:39;4.78;;;2.35;;
66175;SDS011;52977;44.816;20.538;2023-06-14T10:29:16;6.55;;;2.33;;
66175;SDS011;52977;44.816;20.538;2023-06-14T10:31:45;6.50;;;2.58;;
66175;SDS011;52977;44.816;20.538;2023-06-14T10:34:20;4.72;;;2.50;;
66175;SDS011;52977;44.816;20.538;2023-06-14T10:37:03;7.38;;;2.70;;
66175;SDS011;52977;44.816;20.538;2023-06-14T10:39:37;4.72;;;2.60;;
66175;SDS011;52977;44.816;20.538;2023-06-14T10:42:05;5.28;;;2.88;;
66175;SDS011;52977;44.816;20.538;2023-06-14T10:44:41;5.05;;;2.30;;
66175;SDS011;52977;44.816;20.538;2023-06-14T10:47:19;5.88;;;3.10;;
66175;SDS011;52977;44.816;20.538;2023-06-14T10:49:57;6.63;;;2.50;;
66175;SDS011;52977;44.816;20.538;2023-06-14T10:52:32;5.63;;;2.35;;
66175;SDS011;52977;44.816;20.538;2023-06-14T10:57:46;5.03;;;2.50;;
66175;SDS011;52977;44.816;20.538;2023-06-14T11:00:13;3.95;;;2.15;;
66175;SDS011;52977;44.816;20.538;2023-06-14T11:05:41;5.38;;;2.58;;
66175;SDS011;52977;44.816;20.538;2023-06-14T11:11:07;4.45;;;2.35;;
66175;SDS011;52977;44.816;20.538;2023-06-14T11:13:34;6.85;;;2.60;;
66175;SDS011;52977;44.816;20.538;2023-06-14T11:16:02;5.45;;;2.85;;
66175;SDS011;52977;44.816;20.538;2023-06-14T11:18:28;5.53;;;2.50;;
66175;SDS011;52977;44.816;20.538;2023-06-14T11:20:53;4.65;;;2.70;;
66175;SDS011;52977;44.816;20.538;2023-06-14T11:23:20;9.20;;;2.65;;
66175;SDS011;52977;44.816;20.538;2023-06-14T11:25:50;6.63;;;2.47;;
66175;SDS011;52977;44.816;20.538;2023-06-14T11:28:16;5.25;;;2.55;;
66175;SDS011;52977;44.816;20.538;2023-06-14T11:30:42;5.68;;;2.40;;
66175;SDS011;52977;44.816;20.538;2023-06-14T11:33:09;6.18;;;2.50;;
66175;SDS011;52977;44.816;20.538;2023-06-14T11:35:36;4.20;;;2.13;;
66175;SDS011;52977;44.816;20.538;2023-06-14T11:38:02;8.68;;;2.40;;
66175;SDS011;52977;44.816;20.538;2023-06-14T11:40:28;5.93;;;2.03;;
66175;SDS011;52977;44.816;20.538;2023-06-14T11:43:00;6.40;;;2.60;;
66175;SDS011;52977;44.816;20.538;2023-06-14T11:45:27;8.05;;;2.35;;
66175;SDS011;52977;44.816;20.538;2023-06-14T11:47:55;4.45;;;2.10;;
66175;SDS011;52977;44.816;20.538;2023-06-14T11:50:22;5.22;;;2.50;;
66175;SDS011;52977;44.816;20.538;2023-06-14T11:52:52;5.25;;;2.22;;
66175;SDS011;52977;44.816;20.538;2023-06-14T11:55:22;5.97;;;2.30;;
66175;SDS011;52977;44.816;20.538;2023-06-14T11:57:49;4.65;;;2.30;;
66175;SDS011;52977;44.816;20.538;2023-06-14T12:00:16;4.10;;;2.28;;
66175;SDS011;52977;44.816;20.538;2023-06-14T12:02:51;5.90;;;2.22;;
66175;SDS011;52977;44.816;20.538;2023-06-14T12:05:21;3.75;;;2.15;;
66175;SDS011;52977;44.816;20.538;2023-06-14T12:07:48;6.70;;;2.60;;
66175;SDS011;52977;44.816;20.538;2023-06-14T12:10:15;5.43;;;2.63;;
66175;SDS011;52977;44.816;20.538;2023-06-14T12:12:42;5.47;;;2.35;;
66175;SDS011;52977;44.816;20.538;2023-06-14T12:15:09;7.45;;;3.03;;
66175;SDS011;52977;44.816;20.538;2023-06-14T12:17:37;4.40;;;2.28;;
66175;SDS011;52977;44.816;20.538;2023-06-14T12:20:10;5.13;;;2.65;;
66175;SDS011;52977;44.816;20.538;2023-06-14T12:22:51;7.95;;;2.55;;
66175;SDS011;52977;44.816;20.538;2023-06-14T12:28:05;3.95;;;2.20;;
66175;SDS011;52977;44.816;20.538;2023-06-14T12:30:33;4.90;;;2.45;;
66175;SDS011;52977;44.816;20.538;2023-06-14T12:33:04;5.90;;;2.28;;
66175;SDS011;52977;44.816;20.538;2023-06-14T12:35:31;8.30;;;2.45;;
66175;SDS011;52977;44.816;20.538;2023-06-14T12:37:58;4.18;;;2.38;;
66175;SDS011;52977;44.816;20.538;2023-06-14T12:40:25;6.15;;;2.40;;
66175;SDS011;52977;44.816;20.538;2023-06-14T12:42:52;4.57;;;2.45;;
66175;SDS011;52977;44.816;20.538;2023-06-14T12:45:18;5.28;;;2.35;;
66175;SDS011;52977;44.816;20.538;2023-06-14T12:47:44;4.95;;;2.60;;
66175;SDS011;52977;44.816;20.538;2023-06-14T12:50:10;6.13;;;2.40;;
66175;SDS011;52977;44.816;20.538;2023-06-14T12:52:36;4.70;;;2.60;;
66175;SDS011;52977;44.816;20.538;2023-06-14T12:55:03;6.15;;;2.30;;
66175;SDS011;52977;44.816;20.538;2023-06-14T12:57:29;5.05;;;2.05;;
66175;SDS011;52977;44.816;20.538;2023-06-14T12:59:55;4.60;;;2.55;;
66175;SDS011;52977;44.816;20.538;2023-06-14T13:02:20;4.68;;;2.20;;
66175;SDS011;52977;44.816;20.538;2023-06-14T13:04:48;4.22;;;2.00;;
66175;SDS011;52977;44.816;20.538;2023-06-14T13:07:14;4.65;;;2.58;;
66175;SDS011;52977;44.816;20.538;2023-06-14T13:09:40;7.78;;;2.50;;
66175;SDS011;52977;44.816;20.538;2023-06-14T13:12:06;3.95;;;2.05;;
66175;SDS011;52977;44.816;20.538;2023-06-14T13:14:33;5.13;;;2.53;;
66175;SDS011;52977;44.816;20.538;2023-06-14T13:16:58;5.47;;;2.17;;
66175;SDS011;52977;44.816;20.538;2023-06-14T13:19:24;3.67;;;2.05;;
66175;SDS011;52977;44.816;20.538;2023-06-14T13:21:50;5.15;;;2.00;;
66175;SDS011;52977;44.816;20.538;2023-06-14T13:24:15;3.97;;;2.30;;
66175;SDS011;52977;44.816;20.538;2023-06-14T13:26:42;8.35;;;2.30;;
66175;SDS011;52977;44.816;20.538;2023-06-14T13:29:08;4.65;;;2.30;;
66175;SDS011;52977;44.816;20.538;2023-06-14T13:31:35;6.25;;;2.50;;
66175;SDS011;52977;44.816;20.538;2023-06-14T13:34:01;5.43;;;2.53;;
66175;SDS011;52977;44.816;20.538;2023-06-14T13:36:27;6.47;;;2.28;;
66175;SDS011;52977;44.816;20.538;2023-06-14T13:38:53;6.68;;;2.33;;
66175;SDS011;52977;44.816;20.538;2023-06-14T13:41:20;4.47;;;2.47;;
66175;SDS011;52977;44.816;20.538;2023-06-14T13:43:46;5.95;;;2.10;;
66175;SDS011;52977;44.816;20.538;2023-06-14T13:46:13;5.82;;;3.00;;
66175;SDS011;52977;44.816;20.538;2023-06-14T13:48:39;8.27;;;3.42;;
66175;SDS011;52977;44.816;20.538;2023-06-14T13:51:05;6.88;;;3.80;;
66175;SDS011;52977;44.816;20.538;2023-06-14T13:53:31;8.00;;;3.05;;
66175;SDS011;52977;44.816;20.538;2023-06-14T13:55:57;7.75;;;3.78;;
66175;SDS011;52977;44.816;20.538;2023-06-14T13:58:24;5.47;;;2.72;;
66175;SDS011;52977;44.816;20.538;2023-06-14T14:00:50;4.43;;;2.40;;
66175;SDS011;52977;44.816;20.538;2023-06-14T14:03:16;6.65;;;2.80;;
66175;SDS011;52977;44.816;20.538;2023-06-14T14:05:42;4.80;;;2.55;;
66175;SDS011;52977;44.816;20.538;2023-06-14T14:08:08;5.78;;;2.78;;
66175;SDS011;52977;44.816;20.538;2023-06-14T14:10:34;6.35;;;2.60;;
66175;SDS011;52977;44.816;20.538;2023-06-14T14:13:00;6.50;;;2.85;;
66175;SDS011;52977;44.816;20.538;2023-06-14T14:15:27;5.63;;;2.95;;
66175;SDS011;52977;44.816;20.538;2023-06-14T14:17:55;5.70;;;2.83;;
66175;SDS011;52977;44.816;20.538;2023-06-14T14:20:23;11.32;;;6.15;;
66175;SDS011;52977;44.816;20.538;2023-06-14T14:22:48;6.20;;;3.40;;
66175;SDS011;52977;44.816;20.538;2023-06-14T14:25:14;7.65;;;3.30;;
66175;SDS011;52977;44.816;20.538;2023-06-14T14:27:40;8.10;;;3.53;;
66175;SDS011;52977;44.816;20.538;2023-06-14T14:30:07;9.85;;;4.10;;
66175;SDS011;52977;44.816;20.538;2023-06-14T14:32:33;8.45;;;3.85;;
66175;SDS011;52977;44.816;20.538;2023-06-14T14:34:59;8.38;;;4.40;;
66175;SDS011;52977;44.816;20.538;2023-06-14T14:37:25;9.55;;;4.53;;
66175;SDS011;52977;44.816;20.538;2023-06-14T14:39:51;11.38;;;3.33;;
66175;SDS011;52977;44.816;20.538;2023-06-14T14:42:18;6.45;;;3.38;;
66175;SDS011;52977;44.816;20.538;2023-06-14T14:44:44;10.32;;;3.30;;
66175;SDS011;52977;44.816;20.538;2023-06-14T14:47:10;6.53;;;3.13;;
66175;SDS011;52977;44.816;20.538;2023-06-14T14:49:36;8.63;;;3.83;;
66175;SDS011;52977;44.816;20.538;2023-06-14T14:52:01;9.55;;;4.90;;
66175;SDS011;52977;44.816;20.538;2023-06-14T14:54:28;10.38;;;3.55;;
66175;SDS011;52977;44.816;20.538;2023-06-14T14:56:54;8.00;;;3.13;;